createdAt,value
2018-11-04T00:00:06.821Z,0.00
2018-11-04T00:01:06.831Z,0.00
2018-11-04T00:02:06.851Z,0.00
2018-11-04T00:03:06.860Z,0.00
2018-11-04T00:04:06.903Z,0.00
2018-11-04T00:05:06.895Z,0.00
2018-11-04T00:06:06.926Z,0.00
2018-11-04T00:07:06.923Z,0.00
2018-11-04T00:08:06.944Z,0.00
2018-11-04T00:09:06.953Z,0.00
2018-11-04T00:10:06.966Z,0.00
2018-11-04T00:11:06.990Z,0.00
2018-11-04T00:12:07.007Z,0.00
2018-11-04T00:13:07.053Z,0.00
2018-11-04T00:14:07.032Z,0.00
2018-11-04T00:15:07.044Z,0.00
2018-11-04T00:16:07.061Z,0.00
2018-11-04T00:17:07.080Z,0.00
2018-11-04T00:18:07.103Z,0.00
2018-11-04T00:19:07.111Z,0.00
2018-11-04T00:20:07.129Z,0.00
2018-11-04T00:21:07.137Z,0.00
2018-11-04T00:22:07.154Z,0.00
2018-11-04T00:23:07.168Z,0.00
2018-11-04T00:24:07.309Z,0.00
2018-11-04T00:25:07.201Z,0.00
2018-11-04T00:26:07.211Z,0.00
2018-11-04T00:27:07.266Z,0.00
2018-11-04T00:28:07.250Z,0.00
2018-11-04T00:29:07.263Z,0.00
2018-11-04T00:30:07.280Z,0.00
2018-11-04T00:31:07.296Z,0.00
2018-11-04T00:32:07.313Z,0.00
2018-11-04T00:33:07.327Z,0.00
2018-11-04T00:34:07.341Z,0.00
2018-11-04T00:35:07.352Z,0.00
2018-11-04T00:36:07.369Z,0.00
2018-11-04T00:37:07.417Z,0.00
2018-11-04T00:38:07.409Z,0.00
2018-11-04T00:39:07.414Z,0.00
2018-11-04T00:40:07.435Z,0.00
2018-11-04T00:41:07.449Z,0.00
2018-11-04T00:42:07.462Z,0.00
2018-11-04T00:43:07.498Z,0.00
2018-11-04T00:44:07.500Z,0.00
2018-11-04T00:45:07.553Z,0.00
2018-11-04T00:46:07.525Z,0.00
2018-11-04T00:47:07.548Z,0.00
2018-11-04T00:48:07.566Z,0.00
2018-11-04T00:49:07.579Z,0.00
2018-11-04T00:50:07.593Z,0.00
2018-11-04T00:51:07.606Z,0.00
2018-11-04T00:52:07.622Z,0.00
2018-11-04T00:53:07.644Z,0.00
2018-11-04T00:54:07.653Z,0.00
2018-11-04T00:55:07.673Z,0.00
2018-11-04T00:56:07.688Z,0.00
2018-11-04T00:57:07.703Z,0.00
2018-11-04T00:58:07.718Z,0.00
2018-11-04T00:59:07.733Z,0.00
2018-11-04T01:00:07.753Z,0.00
2018-11-04T01:01:07.764Z,0.00
2018-11-04T01:02:07.785Z,0.00
2018-11-04T01:03:07.794Z,0.00
2018-11-04T01:04:07.816Z,0.00
2018-11-04T01:05:07.829Z,0.00
2018-11-04T01:06:07.843Z,0.00
2018-11-04T01:07:07.859Z,0.00
2018-11-04T01:08:07.871Z,0.00
2018-11-04T01:09:07.939Z,0.00
2018-11-04T01:10:07.913Z,0.00
2018-11-04T01:11:07.928Z,0.00
2018-11-04T01:12:07.942Z,0.00
2018-11-04T01:13:07.959Z,0.00
2018-11-04T01:14:07.971Z,0.00
2018-11-04T01:15:07.996Z,0.00
2018-11-04T01:16:08.023Z,0.00
2018-11-04T01:17:08.039Z,0.00
2018-11-04T01:18:08.056Z,0.00
2018-11-04T01:19:08.057Z,0.00
2018-11-04T01:20:09.397Z,0.00
2018-11-04T01:21:08.099Z,0.00
2018-11-04T01:22:08.094Z,0.00
2018-11-04T01:23:08.110Z,0.00
2018-11-04T01:24:08.134Z,0.00
2018-11-04T01:25:08.143Z,0.00
2018-11-04T01:26:08.161Z,0.00
2018-11-04T01:27:08.174Z,0.00
2018-11-04T01:28:08.192Z,0.00
2018-11-04T01:29:08.236Z,0.00
2018-11-04T01:30:08.222Z,0.00
2018-11-04T01:31:08.240Z,0.00
2018-11-04T01:32:08.257Z,0.00
2018-11-04T01:33:08.272Z,0.00
2018-11-04T01:34:08.332Z,0.00
2018-11-04T01:35:08.307Z,0.00
2018-11-04T01:36:08.323Z,0.00
2018-11-04T01:37:08.342Z,0.00
2018-11-04T01:38:08.349Z,0.00
2018-11-04T01:39:08.373Z,0.00
2018-11-04T01:40:08.386Z,0.00
2018-11-04T01:41:08.399Z,0.00
2018-11-04T01:42:08.412Z,0.00
2018-11-04T01:43:08.429Z,0.00
2018-11-04T01:44:08.449Z,0.00
2018-11-04T01:45:08.471Z,0.00
2018-11-04T01:46:08.488Z,0.00
2018-11-04T01:47:08.492Z,0.00
2018-11-04T01:48:08.522Z,0.00
2018-11-04T01:49:08.530Z,0.00
2018-11-04T01:50:08.539Z,0.00
2018-11-04T01:51:08.559Z,0.00
2018-11-04T01:52:08.575Z,0.00
2018-11-04T01:53:08.593Z,0.00
2018-11-04T01:54:08.608Z,0.00
2018-11-04T01:55:08.631Z,0.00
2018-11-04T01:56:08.643Z,0.00
2018-11-04T01:57:08.659Z,0.00
2018-11-04T01:58:08.676Z,0.00
2018-11-04T01:59:08.718Z,0.00
2018-11-04T02:00:08.705Z,0.00
2018-11-04T02:01:08.738Z,0.00
2018-11-04T02:02:08.745Z,0.00
2018-11-04T02:03:08.751Z,0.00
2018-11-04T02:04:08.768Z,0.00
2018-11-04T02:05:08.791Z,0.00
2018-11-04T02:06:08.801Z,0.00
2018-11-04T02:07:08.825Z,0.00
2018-11-04T02:08:08.848Z,0.00
2018-11-04T02:09:08.859Z,0.00
2018-11-04T02:10:08.865Z,0.00
2018-11-04T02:11:08.893Z,0.00
2018-11-04T02:12:08.894Z,0.00
2018-11-04T02:13:08.913Z,0.00
2018-11-04T02:14:08.929Z,0.00
2018-11-04T02:15:08.947Z,0.00
2018-11-04T02:16:08.965Z,0.00
2018-11-04T02:17:08.982Z,0.00
2018-11-04T02:18:09.014Z,0.00
2018-11-04T02:19:09.011Z,0.00
2018-11-04T02:20:09.029Z,0.00
2018-11-04T02:21:09.043Z,0.00
2018-11-04T02:22:09.064Z,0.00
2018-11-04T02:23:09.080Z,0.00
2018-11-04T02:24:09.099Z,0.00
2018-11-04T02:25:09.109Z,0.00
2018-11-04T02:26:09.125Z,0.00
2018-11-04T02:27:09.144Z,0.00
2018-11-04T02:28:09.163Z,0.00
2018-11-04T02:29:09.182Z,0.00
2018-11-04T02:30:09.199Z,0.00
2018-11-04T02:31:09.236Z,0.00
2018-11-04T02:32:09.225Z,0.00
2018-11-04T02:33:09.252Z,0.00
2018-11-04T02:34:09.293Z,0.00
2018-11-04T02:35:09.279Z,0.00
2018-11-04T02:36:09.301Z,0.00
2018-11-04T02:37:09.317Z,0.00
2018-11-04T02:38:09.328Z,0.00
2018-11-04T02:39:09.352Z,0.00
2018-11-04T02:40:09.363Z,0.00
2018-11-04T02:41:09.373Z,0.00
2018-11-04T02:42:09.393Z,0.00
2018-11-04T02:43:09.414Z,0.00
2018-11-04T02:44:09.426Z,0.00
2018-11-04T02:45:09.442Z,0.00
2018-11-04T02:46:09.452Z,0.00
2018-11-04T02:47:09.606Z,0.00
2018-11-04T02:48:09.493Z,0.00
2018-11-04T02:49:09.503Z,0.00
2018-11-04T02:50:09.524Z,0.00
2018-11-04T02:51:09.542Z,0.00
2018-11-04T02:52:09.552Z,0.00
2018-11-04T02:53:09.576Z,0.00
2018-11-04T02:54:09.588Z,0.00
2018-11-04T02:55:09.616Z,0.00
2018-11-04T02:56:09.623Z,0.00
2018-11-04T02:57:09.649Z,0.00
2018-11-04T02:58:09.649Z,0.00
2018-11-04T02:59:09.668Z,0.00
2018-11-04T03:00:09.683Z,0.00
2018-11-04T03:01:09.708Z,0.00
2018-11-04T03:02:09.827Z,0.00
2018-11-04T03:03:09.734Z,0.00
2018-11-04T03:04:09.751Z,0.00
2018-11-04T03:05:09.768Z,0.00
2018-11-04T03:06:09.784Z,0.00
2018-11-04T03:07:09.808Z,0.00
2018-11-04T03:08:09.823Z,0.00
2018-11-04T03:09:09.836Z,0.00
2018-11-04T03:10:09.848Z,0.00
2018-11-04T03:11:09.872Z,0.00
2018-11-04T03:12:09.884Z,0.00
2018-11-04T03:13:09.911Z,0.00
2018-11-04T03:14:09.923Z,0.00
2018-11-04T03:15:09.933Z,0.00
2018-11-04T03:16:09.952Z,0.00
2018-11-04T03:17:09.981Z,0.00
2018-11-04T03:18:09.990Z,0.00
2018-11-04T03:19:10.003Z,0.00
2018-11-04T03:20:10.023Z,0.00
2018-11-04T03:21:10.047Z,0.00
2018-11-04T03:22:10.050Z,0.00
2018-11-04T03:23:10.066Z,0.00
2018-11-04T03:24:10.092Z,0.00
2018-11-04T03:25:10.099Z,0.00
2018-11-04T03:26:10.133Z,0.00
2018-11-04T03:27:10.174Z,0.00
2018-11-04T03:28:10.167Z,0.00
2018-11-04T03:29:10.169Z,0.00
2018-11-04T03:30:10.187Z,0.00
2018-11-04T03:31:10.203Z,0.00
2018-11-04T03:32:10.235Z,0.00
2018-11-04T03:33:10.239Z,0.00
2018-11-04T03:34:10.268Z,0.00
2018-11-04T03:35:10.278Z,0.00
2018-11-04T03:36:10.288Z,0.00
2018-11-04T03:37:10.306Z,0.00
2018-11-04T03:38:10.319Z,0.00
2018-11-04T03:39:10.340Z,0.00
2018-11-04T03:40:10.368Z,0.00
2018-11-04T03:41:10.377Z,0.00
2018-11-04T03:42:10.390Z,0.00
2018-11-04T03:43:10.407Z,0.00
2018-11-04T03:44:10.434Z,0.00
2018-11-04T03:45:10.440Z,0.00
2018-11-04T03:46:10.475Z,0.00
2018-11-04T03:47:10.466Z,0.00
2018-11-04T03:48:10.481Z,0.00
2018-11-04T03:49:10.504Z,0.00
2018-11-04T03:50:10.520Z,0.00
2018-11-04T03:51:10.552Z,0.00
2018-11-04T03:52:10.552Z,0.00
2018-11-04T03:53:10.575Z,0.00
2018-11-04T03:54:10.588Z,0.00
2018-11-04T03:55:10.599Z,0.00
2018-11-04T03:56:10.628Z,0.00
2018-11-04T03:57:10.642Z,0.00
2018-11-04T03:58:10.652Z,0.00
2018-11-04T03:59:10.674Z,0.00
2018-11-04T04:00:10.685Z,0.00
2018-11-04T04:01:10.707Z,0.00
2018-11-04T04:02:10.720Z,0.00
2018-11-04T04:03:10.740Z,0.00
2018-11-04T04:04:10.772Z,0.00
2018-11-04T04:05:10.784Z,0.00
2018-11-04T04:06:10.788Z,0.00
2018-11-04T04:07:10.807Z,0.00
2018-11-04T04:08:10.828Z,0.00
2018-11-04T04:09:10.839Z,0.00
2018-11-04T04:10:10.858Z,0.00
2018-11-04T04:11:10.879Z,0.00
2018-11-04T04:12:10.892Z,0.00
2018-11-04T04:13:10.911Z,0.00
2018-11-04T04:14:10.927Z,0.00
2018-11-04T04:15:10.939Z,0.00
2018-11-04T04:16:10.955Z,0.00
2018-11-04T04:17:10.971Z,0.00
2018-11-04T04:18:10.992Z,0.00
2018-11-04T04:19:11.007Z,0.00
2018-11-04T04:20:11.028Z,0.00
2018-11-04T04:21:11.046Z,0.00
2018-11-04T04:22:11.058Z,0.00
2018-11-04T04:23:11.079Z,0.00
2018-11-04T04:24:11.090Z,0.00
2018-11-04T04:25:11.109Z,0.00
2018-11-04T04:26:11.125Z,0.00
2018-11-04T04:27:11.146Z,0.00
2018-11-04T04:28:11.173Z,0.00
2018-11-04T04:29:11.184Z,0.00
2018-11-04T04:30:11.199Z,0.00
2018-11-04T04:31:11.211Z,0.00
2018-11-04T04:32:11.229Z,0.00
2018-11-04T04:33:11.246Z,0.00
2018-11-04T04:34:11.262Z,0.00
2018-11-04T04:35:11.285Z,0.00
2018-11-04T04:36:11.303Z,0.00
2018-11-04T04:37:11.316Z,0.00
2018-11-04T04:38:11.342Z,0.00
2018-11-04T04:39:11.353Z,0.00
2018-11-04T04:40:11.368Z,0.00
2018-11-04T04:41:11.381Z,0.00
2018-11-04T04:42:11.402Z,0.00
2018-11-04T04:43:11.415Z,0.00
2018-11-04T04:44:11.438Z,0.00
2018-11-04T04:45:11.452Z,0.00
2018-11-04T04:46:11.468Z,0.00
2018-11-04T04:47:11.485Z,0.00
2018-11-04T04:48:11.501Z,0.00
2018-11-04T04:49:11.517Z,0.00
2018-11-04T04:50:11.547Z,0.00
2018-11-04T04:51:11.555Z,0.00
2018-11-04T04:52:11.570Z,0.00
2018-11-04T04:53:11.586Z,0.00
2018-11-04T04:54:11.606Z,0.00
2018-11-04T04:55:11.623Z,0.00
2018-11-04T04:56:11.640Z,0.00
2018-11-04T04:57:11.657Z,0.00
2018-11-04T04:58:11.674Z,0.00
2018-11-04T04:59:11.694Z,0.00
2018-11-04T05:00:11.723Z,0.00
2018-11-04T05:01:11.738Z,0.00
2018-11-04T05:02:11.756Z,0.00
2018-11-04T05:03:11.761Z,0.00
2018-11-04T05:04:11.777Z,0.00
2018-11-04T05:05:11.793Z,0.00
2018-11-04T05:06:11.822Z,0.00
2018-11-04T05:07:11.829Z,0.00
2018-11-04T05:08:11.851Z,0.00
2018-11-04T05:09:11.869Z,0.00
2018-11-04T05:10:11.884Z,0.00
2018-11-04T05:11:11.902Z,0.00
2018-11-04T05:12:11.922Z,0.00
2018-11-04T05:13:11.956Z,0.00
2018-11-04T05:14:11.960Z,0.00
2018-11-04T05:15:11.965Z,0.00
2018-11-04T05:16:11.986Z,0.00
2018-11-04T05:17:12.027Z,0.00
2018-11-04T05:18:12.029Z,0.00
2018-11-04T05:19:12.043Z,0.00
2018-11-04T05:20:12.060Z,0.00
2018-11-04T05:21:12.075Z,0.00
2018-11-04T05:22:12.098Z,0.00
2018-11-04T05:23:12.126Z,0.00
2018-11-04T05:24:12.132Z,0.00
2018-11-04T05:25:12.150Z,0.00
2018-11-04T05:26:12.165Z,0.00
2018-11-04T05:27:12.184Z,0.00
2018-11-04T05:28:12.194Z,0.00
2018-11-04T05:29:12.212Z,0.00
2018-11-04T05:30:12.232Z,0.00
2018-11-04T05:31:12.255Z,0.00
2018-11-04T05:32:12.273Z,0.00
2018-11-04T05:33:12.284Z,0.00
2018-11-04T05:34:12.312Z,0.00
2018-11-04T05:35:12.319Z,0.00
2018-11-04T05:36:12.369Z,0.00
2018-11-04T05:37:12.351Z,0.00
2018-11-04T05:38:12.378Z,0.00
2018-11-04T05:39:12.385Z,0.00
2018-11-04T05:40:12.405Z,0.00
2018-11-04T05:41:12.420Z,0.00
2018-11-04T05:42:12.433Z,0.00
2018-11-04T05:43:12.458Z,0.00
2018-11-04T05:44:12.473Z,0.00
2018-11-04T05:45:12.489Z,0.00
2018-11-04T05:46:12.509Z,0.00
2018-11-04T05:47:12.521Z,0.00
2018-11-04T05:48:12.536Z,0.00
2018-11-04T05:49:12.553Z,0.00
2018-11-04T05:50:12.575Z,4.00
2018-11-04T05:51:12.585Z,4.00
2018-11-04T05:52:12.614Z,4.00
2018-11-04T05:53:12.624Z,4.00
2018-11-04T05:54:12.654Z,0.00
2018-11-04T05:55:12.666Z,0.00
2018-11-04T05:56:12.672Z,4.00
2018-11-04T05:57:12.689Z,4.00
2018-11-04T05:58:12.711Z,4.00
2018-11-04T05:59:12.746Z,4.00
2018-11-04T06:00:12.757Z,8.00
2018-11-04T06:01:12.765Z,4.00
2018-11-04T06:02:12.784Z,8.00
2018-11-04T06:03:12.793Z,8.00
2018-11-04T06:04:12.809Z,12.00
2018-11-04T06:05:12.839Z,12.00
2018-11-04T06:06:12.850Z,16.00
2018-11-04T06:07:12.868Z,16.00
2018-11-04T06:08:12.885Z,20.00
2018-11-04T06:09:12.906Z,24.00
2018-11-04T06:10:12.924Z,24.00
2018-11-04T06:11:12.935Z,28.00
2018-11-04T06:12:12.947Z,28.00
2018-11-04T06:13:12.969Z,36.00
2018-11-04T06:14:12.986Z,36.00
2018-11-04T06:15:13.007Z,44.00
2018-11-04T06:16:13.016Z,44.00
2018-11-04T06:17:13.054Z,52.00
2018-11-04T06:18:13.060Z,56.00
2018-11-04T06:19:13.094Z,64.00
2018-11-04T06:20:13.089Z,64.00
2018-11-04T06:21:13.103Z,72.00
2018-11-04T06:22:13.131Z,80.00
2018-11-04T06:23:13.141Z,84.00
2018-11-04T06:24:13.159Z,92.00
2018-11-04T06:25:13.187Z,96.00
2018-11-04T06:26:13.195Z,104.00
2018-11-04T06:27:13.209Z,112.00
2018-11-04T06:28:13.224Z,120.00
2018-11-04T06:29:13.252Z,124.00
2018-11-04T06:30:13.301Z,132.00
2018-11-04T06:31:13.292Z,144.00
2018-11-04T06:32:13.296Z,148.00
2018-11-04T06:33:13.317Z,160.00
2018-11-04T06:34:13.332Z,172.00
2018-11-04T06:35:13.364Z,184.00
2018-11-04T06:36:13.383Z,196.00
2018-11-04T06:37:13.386Z,208.00
2018-11-04T06:38:13.408Z,220.00
2018-11-04T06:39:13.419Z,232.00
2018-11-04T06:40:13.451Z,236.00
2018-11-04T06:41:13.559Z,248.00
2018-11-04T06:42:13.473Z,256.00
2018-11-04T06:43:13.488Z,268.00
2018-11-04T06:44:13.523Z,280.00
2018-11-04T06:45:13.528Z,300.00
2018-11-04T06:46:13.545Z,324.00
2018-11-04T06:47:13.696Z,336.00
2018-11-04T06:48:13.573Z,348.00
2018-11-04T06:49:13.596Z,364.00
2018-11-04T06:50:13.641Z,388.00
2018-11-04T06:51:13.637Z,420.00
2018-11-04T06:52:13.669Z,456.00
2018-11-04T06:53:13.689Z,480.00
2018-11-04T06:54:13.692Z,496.00
2018-11-04T06:55:13.715Z,516.00
2018-11-04T06:56:13.728Z,536.00
2018-11-04T06:57:13.736Z,556.00
2018-11-04T06:58:13.764Z,576.00
2018-11-04T06:59:13.776Z,584.00
2018-11-04T07:00:13.786Z,584.00
2018-11-04T07:01:13.810Z,592.00
2018-11-04T07:02:13.819Z,616.00
2018-11-04T07:03:13.837Z,648.00
2018-11-04T07:04:13.856Z,680.00
2018-11-04T07:05:13.896Z,708.00
2018-11-04T07:06:13.897Z,736.00
2018-11-04T07:07:13.909Z,764.00
2018-11-04T07:08:13.927Z,788.00
2018-11-04T07:09:13.944Z,812.00
2018-11-04T07:10:13.965Z,828.00
2018-11-04T07:11:13.989Z,844.00
2018-11-04T07:12:14.006Z,868.00
2018-11-04T07:13:14.028Z,908.00
2018-11-04T07:14:14.039Z,940.00
2018-11-04T07:15:14.053Z,968.00
2018-11-04T07:16:14.075Z,992.00
2018-11-04T07:17:14.084Z,1020.00
2018-11-04T07:18:14.102Z,1052.00
2018-11-04T07:19:14.120Z,1080.00
2018-11-04T07:20:14.140Z,1116.00
2018-11-04T07:21:14.175Z,1160.00
2018-11-04T07:22:14.179Z,1208.00
2018-11-04T07:23:14.194Z,1252.00
2018-11-04T07:24:14.215Z,1292.00
2018-11-04T07:25:14.235Z,1328.00
2018-11-04T07:26:14.247Z,1376.00
2018-11-04T07:27:14.263Z,1440.00
2018-11-04T07:28:14.285Z,1504.00
2018-11-04T07:29:14.302Z,1576.00
2018-11-04T07:30:14.315Z,1652.00
2018-11-04T07:31:14.337Z,1760.00
2018-11-04T07:32:14.414Z,1860.00
2018-11-04T07:33:14.370Z,1956.00
2018-11-04T07:34:14.399Z,2040.00
2018-11-04T07:35:14.413Z,2096.00
2018-11-04T07:36:14.428Z,2140.00
2018-11-04T07:37:14.443Z,2200.00
2018-11-04T07:38:14.461Z,2276.00
2018-11-04T07:39:14.484Z,2332.00
2018-11-04T07:40:14.504Z,2388.00
2018-11-04T07:41:14.520Z,2428.00
2018-11-04T07:42:14.533Z,2484.00
2018-11-04T07:43:14.551Z,2572.00
2018-11-04T07:44:14.627Z,2624.00
2018-11-04T07:45:14.607Z,2644.00
2018-11-04T07:46:14.606Z,2664.00
2018-11-04T07:47:14.634Z,2644.00
2018-11-04T07:48:14.647Z,2612.00
2018-11-04T07:49:14.665Z,2580.00
2018-11-04T07:50:14.681Z,2600.00
2018-11-04T07:51:14.701Z,2612.00
2018-11-04T07:52:14.746Z,2636.00
2018-11-04T07:53:14.735Z,2668.00
2018-11-04T07:54:14.776Z,2712.00
2018-11-04T07:55:14.778Z,2720.00
2018-11-04T07:56:14.796Z,2736.00
2018-11-04T07:57:14.807Z,2788.00
2018-11-04T07:58:14.827Z,2860.00
2018-11-04T07:59:14.847Z,2896.00
2018-11-04T08:00:14.868Z,2896.00
2018-11-04T08:01:14.882Z,2896.00
2018-11-04T08:02:14.900Z,2896.00
2018-11-04T08:03:14.920Z,2928.00
2018-11-04T08:04:15.033Z,2980.00
2018-11-04T08:05:14.955Z,3040.00
2018-11-04T08:06:14.984Z,3100.00
2018-11-04T08:07:15.009Z,3184.00
2018-11-04T08:08:15.013Z,3240.00
2018-11-04T08:09:15.032Z,3260.00
2018-11-04T08:10:15.045Z,3288.00
2018-11-04T08:11:15.073Z,3364.00
2018-11-04T08:12:15.090Z,3456.00
2018-11-04T08:13:15.108Z,3556.00
2018-11-04T08:14:15.122Z,3624.00
2018-11-04T08:15:15.144Z,3660.00
2018-11-04T08:16:15.166Z,3664.00
2018-11-04T08:17:15.173Z,3608.00
2018-11-04T08:18:15.195Z,3540.00
2018-11-04T08:19:15.207Z,3540.00
2018-11-04T08:20:15.230Z,3612.00
2018-11-04T08:21:15.269Z,3700.00
2018-11-04T08:22:15.274Z,3764.00
2018-11-04T08:23:15.287Z,3804.00
2018-11-04T08:24:15.311Z,3800.00
2018-11-04T08:25:15.327Z,3784.00
2018-11-04T08:26:15.341Z,3792.00
2018-11-04T08:27:15.359Z,3856.00
2018-11-04T08:28:15.378Z,3872.00
2018-11-04T08:29:15.394Z,3884.00
2018-11-04T08:30:15.440Z,3924.00
2018-11-04T08:31:15.447Z,3992.00
2018-11-04T08:32:15.463Z,4084.00
2018-11-04T08:33:15.496Z,4112.00
2018-11-04T08:34:15.500Z,4100.00
2018-11-04T08:35:15.515Z,4108.00
2018-11-04T08:36:15.525Z,4148.00
2018-11-04T08:37:15.545Z,4196.00
2018-11-04T08:38:15.560Z,4276.00
2018-11-04T08:39:15.584Z,4356.00
2018-11-04T08:40:15.671Z,4452.00
2018-11-04T08:41:15.626Z,4528.00
2018-11-04T08:42:15.635Z,4624.00
2018-11-04T08:43:15.657Z,4804.00
2018-11-04T08:44:15.680Z,5012.00
2018-11-04T08:45:15.692Z,5168.00
2018-11-04T08:46:15.713Z,5284.00
2018-11-04T08:47:15.730Z,5332.00
2018-11-04T08:48:15.759Z,5356.00
2018-11-04T08:49:15.772Z,5360.00
2018-11-04T08:50:15.788Z,5360.00
2018-11-04T08:51:15.805Z,5256.00
2018-11-04T08:52:15.823Z,5160.00
2018-11-04T08:53:15.858Z,5136.00
2018-11-04T08:54:15.874Z,5180.00
2018-11-04T08:55:15.883Z,5208.00
2018-11-04T08:56:15.910Z,5180.00
2018-11-04T08:57:15.921Z,5164.00
2018-11-04T08:58:15.991Z,5216.00
2018-11-04T08:59:15.960Z,5276.00
2018-11-04T09:00:16.107Z,5404.00
2018-11-04T09:01:16.006Z,5452.00
2018-11-04T09:02:16.028Z,5508.00
2018-11-04T09:03:16.075Z,5576.00
2018-11-04T09:04:16.062Z,5744.00
2018-11-04T09:05:16.080Z,6004.00
2018-11-04T09:06:16.119Z,6252.00
2018-11-04T09:07:16.126Z,6380.00
2018-11-04T09:08:16.138Z,6388.00
2018-11-04T09:09:16.153Z,6384.00
2018-11-04T09:10:16.187Z,6444.00
2018-11-04T09:11:16.187Z,6476.00
2018-11-04T09:12:16.219Z,6452.00
2018-11-04T09:13:16.235Z,6576.00
2018-11-04T09:14:16.357Z,6772.00
2018-11-04T09:15:16.271Z,6784.00
2018-11-04T09:16:16.290Z,6636.00
2018-11-04T09:17:16.318Z,6560.00
2018-11-04T09:18:16.326Z,6496.00
2018-11-04T09:19:16.348Z,6392.00
2018-11-04T09:20:16.369Z,6312.00
2018-11-04T09:21:16.391Z,6304.00
2018-11-04T09:22:16.490Z,6400.00
2018-11-04T09:23:16.433Z,6480.00
2018-11-04T09:24:16.449Z,6440.00
2018-11-04T09:25:16.465Z,6456.00
2018-11-04T09:26:16.501Z,6568.00
2018-11-04T09:27:16.520Z,6708.00
2018-11-04T09:28:16.532Z,6756.00
2018-11-04T09:29:16.598Z,6732.00
2018-11-04T09:30:16.566Z,6772.00
2018-11-04T09:31:16.589Z,6720.00
2018-11-04T09:32:16.607Z,6500.00
2018-11-04T09:33:16.632Z,6316.00
2018-11-04T09:34:16.692Z,6188.00
2018-11-04T09:35:16.742Z,6200.00
2018-11-04T09:36:16.881Z,6272.00
2018-11-04T09:37:16.712Z,6288.00
2018-11-04T09:38:16.731Z,6300.00
2018-11-04T09:39:16.754Z,6324.00
2018-11-04T09:40:16.769Z,6224.00
2018-11-04T09:41:16.790Z,6128.00
2018-11-04T09:42:16.811Z,6144.00
2018-11-04T09:43:16.829Z,6260.00
2018-11-04T09:44:16.848Z,6340.00
2018-11-04T09:45:16.871Z,6372.00
2018-11-04T09:46:16.915Z,6416.00
2018-11-04T09:47:16.913Z,6488.00
2018-11-04T09:48:16.939Z,6560.00
2018-11-04T09:49:16.963Z,6640.00
2018-11-04T09:50:16.980Z,6648.00
2018-11-04T09:51:17.002Z,6696.00
2018-11-04T09:52:17.012Z,6904.00
2018-11-04T09:53:17.033Z,7156.00
2018-11-04T09:54:17.053Z,7352.00
2018-11-04T09:55:17.074Z,7520.00
2018-11-04T09:56:17.157Z,7640.00
2018-11-04T09:57:17.116Z,7564.00
2018-11-04T09:58:17.139Z,7400.00
2018-11-04T09:59:17.184Z,7336.00
2018-11-04T10:00:17.175Z,7336.00
2018-11-04T10:01:17.202Z,7364.00
2018-11-04T10:02:17.219Z,7336.00
2018-11-04T10:03:17.242Z,7248.00
2018-11-04T10:04:17.257Z,7268.00
2018-11-04T10:05:17.279Z,7304.00
2018-11-04T10:06:17.302Z,7408.00
2018-11-04T10:07:17.454Z,7520.00
2018-11-04T10:08:17.344Z,7556.00
2018-11-04T10:09:17.370Z,7464.00
2018-11-04T10:10:17.384Z,7396.00
2018-11-04T10:11:17.403Z,7360.00
2018-11-04T10:12:17.429Z,7360.00
2018-11-04T10:13:17.462Z,7420.00
2018-11-04T10:14:17.466Z,7472.00
2018-11-04T10:15:17.485Z,7532.00
2018-11-04T10:16:17.591Z,7552.00
2018-11-04T10:17:17.532Z,7572.00
2018-11-04T10:18:17.551Z,7628.00
2018-11-04T10:19:17.842Z,7636.00
2018-11-04T10:20:17.880Z,7648.00
2018-11-04T10:21:17.609Z,7648.00
2018-11-04T10:22:17.663Z,7384.00
2018-11-04T10:23:17.650Z,7064.00
2018-11-04T10:24:17.679Z,6708.00
2018-11-04T10:25:17.691Z,6432.00
2018-11-04T10:26:17.712Z,6356.00
2018-11-04T10:27:17.739Z,6288.00
2018-11-04T10:28:17.755Z,6140.00
2018-11-04T10:29:17.778Z,5908.00
2018-11-04T10:30:17.921Z,5740.00
2018-11-04T10:31:17.847Z,5608.00
2018-11-04T10:32:17.840Z,5572.00
2018-11-04T10:33:17.869Z,5688.00
2018-11-04T10:34:17.875Z,6016.00
2018-11-04T10:35:17.894Z,6404.00
2018-11-04T10:36:17.972Z,6644.00
2018-11-04T10:37:18.022Z,6736.00
2018-11-04T10:38:17.964Z,6940.00
2018-11-04T10:39:17.976Z,7216.00
2018-11-04T10:40:17.998Z,7512.00
2018-11-04T10:41:18.028Z,7748.00
2018-11-04T10:42:18.089Z,7908.00
2018-11-04T10:43:18.063Z,7968.00
2018-11-04T10:44:18.086Z,7976.00
2018-11-04T10:45:18.109Z,7936.00
2018-11-04T10:46:18.158Z,7688.00
2018-11-04T10:47:18.178Z,7484.00
2018-11-04T10:48:18.182Z,7436.00
2018-11-04T10:49:18.220Z,7436.00
2018-11-04T10:50:18.247Z,7468.00
2018-11-04T10:51:18.248Z,7564.00
2018-11-04T10:52:19.080Z,7844.00
2018-11-04T10:53:18.275Z,8252.00
2018-11-04T10:54:18.289Z,8680.00
2018-11-04T10:55:18.336Z,8956.00
2018-11-04T10:56:18.337Z,9040.00
2018-11-04T10:57:18.359Z,9044.00
2018-11-04T10:58:18.409Z,9000.00
2018-11-04T10:59:18.400Z,9008.00
2018-11-04T11:00:18.427Z,9036.00
2018-11-04T11:01:18.449Z,9060.00
2018-11-04T11:02:18.458Z,8968.00
2018-11-04T11:03:18.478Z,8780.00
2018-11-04T11:04:18.518Z,8672.00
2018-11-04T11:05:18.543Z,8628.00
2018-11-04T11:06:18.564Z,8664.00
2018-11-04T11:07:18.572Z,8752.00
2018-11-04T11:08:18.593Z,8884.00
2018-11-04T11:09:18.607Z,8848.00
2018-11-04T11:10:18.629Z,8620.00
2018-11-04T11:11:18.656Z,8404.00
2018-11-04T11:12:18.668Z,8284.00
2018-11-04T11:13:18.705Z,8272.00
2018-11-04T11:14:18.726Z,8392.00
2018-11-04T11:15:18.734Z,8584.00
2018-11-04T11:16:18.755Z,8604.00
2018-11-04T11:17:18.781Z,8532.00
2018-11-04T11:18:18.806Z,8428.00
2018-11-04T11:19:18.820Z,8352.00
2018-11-04T11:20:18.843Z,8332.00
2018-11-04T11:21:18.873Z,8448.00
2018-11-04T11:22:18.882Z,8460.00
2018-11-04T11:23:19.069Z,8392.00
2018-11-04T11:24:18.934Z,8260.00
2018-11-04T11:25:18.965Z,8156.00
2018-11-04T11:26:18.976Z,8004.00
2018-11-04T11:27:18.989Z,7732.00
2018-11-04T11:28:19.024Z,7440.00
2018-11-04T11:29:19.055Z,7296.00
2018-11-04T11:30:19.220Z,7276.00
2018-11-04T11:31:19.080Z,7292.00
2018-11-04T11:32:19.101Z,7244.00
2018-11-04T11:33:19.125Z,7268.00
2018-11-04T11:34:19.153Z,7504.00
2018-11-04T11:35:19.165Z,7812.00
2018-11-04T11:36:19.187Z,7956.00
2018-11-04T11:37:19.297Z,7952.00
2018-11-04T11:38:19.232Z,7948.00
2018-11-04T11:39:19.258Z,7956.00
2018-11-04T11:40:19.282Z,8000.00
2018-11-04T11:41:19.312Z,8120.00
2018-11-04T11:42:19.367Z,8064.00
2018-11-04T11:43:19.342Z,7936.00
2018-11-04T11:44:19.367Z,7756.00
2018-11-04T11:45:19.384Z,7684.00
2018-11-04T11:46:19.406Z,7744.00
2018-11-04T11:47:19.431Z,7912.00
2018-11-04T11:48:19.453Z,7896.00
2018-11-04T11:49:19.475Z,7856.00
2018-11-04T11:50:19.489Z,7892.00
2018-11-04T11:51:19.519Z,7772.00
2018-11-04T11:52:19.550Z,7632.00
2018-11-04T11:53:19.560Z,7580.00
2018-11-04T11:54:19.583Z,7556.00
2018-11-04T11:55:19.601Z,7552.00
2018-11-04T11:56:19.622Z,7588.00
2018-11-04T11:57:19.648Z,7604.00
2018-11-04T11:58:19.667Z,7632.00
2018-11-04T11:59:19.702Z,7716.00
2018-11-04T12:00:19.717Z,7712.00
2018-11-04T12:01:19.736Z,7644.00
2018-11-04T12:02:19.872Z,7524.00
2018-11-04T12:03:19.779Z,7508.00
2018-11-04T12:04:19.799Z,7408.00
2018-11-04T12:05:19.838Z,7160.00
2018-11-04T12:06:19.845Z,6920.00
2018-11-04T12:07:19.868Z,6768.00
2018-11-04T12:08:19.887Z,6644.00
2018-11-04T12:09:19.906Z,6500.00
2018-11-04T12:10:19.933Z,6444.00
2018-11-04T12:11:19.966Z,6488.00
2018-11-04T12:12:19.973Z,6508.00
2018-11-04T12:13:19.998Z,6420.00
2018-11-04T12:14:20.023Z,6332.00
2018-11-04T12:15:20.051Z,6172.00
2018-11-04T12:16:20.072Z,5864.00
2018-11-04T12:17:20.091Z,5536.00
2018-11-04T12:18:20.135Z,5216.00
2018-11-04T12:19:20.131Z,5056.00
2018-11-04T12:20:20.150Z,5020.00
2018-11-04T12:21:20.193Z,5036.00
2018-11-04T12:22:20.191Z,5068.00
2018-11-04T12:23:20.236Z,5224.00
2018-11-04T12:24:20.250Z,5364.00
2018-11-04T12:25:20.257Z,5328.00
2018-11-04T12:26:20.292Z,5300.00
2018-11-04T12:27:20.306Z,5424.00
2018-11-04T12:28:20.325Z,5584.00
2018-11-04T12:29:20.348Z,5700.00
2018-11-04T12:30:20.374Z,5732.00
2018-11-04T12:31:20.389Z,5748.00
2018-11-04T12:32:20.417Z,5732.00
2018-11-04T12:33:20.439Z,5604.00
2018-11-04T12:34:20.480Z,5664.00
2018-11-04T12:35:20.626Z,5808.00
2018-11-04T12:36:20.519Z,5724.00
2018-11-04T12:37:20.523Z,5484.00
2018-11-04T12:38:20.552Z,5296.00
2018-11-04T12:39:20.560Z,5312.00
2018-11-04T12:40:20.603Z,5356.00
2018-11-04T12:41:20.624Z,5260.00